Time;durP1;ratioP1;P1;durP2;ratioP2;P2;SDS_P1;SDS_P2;PMS_P1;PMS_P2;Temp;Humidity;BMP_temperature;BMP_pressure;BME280_temperature;BME280_humidity;BME280_pressure;Samples;Min_cycle;Max_cycle;Signal;HPM_P1;HPM_P2
2023/01/05 00:00:52;;;;;;;20.08;3.30;;;;;;;-142.75;100.00;77306.56;4983093;28;20025;-67
2023/01/05 00:03:17;;;;;;;23.55;2.92;;;;;;;-142.75;100.00;77304.59;4983121;28;20512;-68
2023/01/05 00:05:43;;;;;;;19.35;3.38;;;;;;;-142.75;100.00;77302.63;5002718;28;20345;-66
2023/01/05 00:08:08;;;;;;;;;;;;;;;-142.75;100.00;77310.50;5001913;28;20151;-66
2023/01/05 00:24:23;;;;;;;21.63;2.42;;;;;;;-142.75;100.00;77332.16;5001413;28;20041;-66
2023/01/05 00:26:48;;;;;;;30.58;3.00;;;;;;;-142.75;100.00;77349.88;5001067;28;20365;-66
2023/01/05 00:29:14;;;;;;;25.08;3.08;;;;;;;-142.75;100.00;77342.00;5001247;28;20330;-66
2023/01/05 00:31:39;;;;;;;17.17;2.63;;;;;;;-142.75;100.00;77353.81;5003529;28;20346;-66
2023/01/05 00:34:05;;;;;;;28.10;4.43;;;;;;;-142.75;100.00;77355.78;5000713;28;20308;-67
2023/01/05 00:36:30;;;;;;;;;;;;;;;-142.75;100.00;77334.13;5003107;28;20292;-67
2023/01/05 00:38:55;;;;;;;28.80;3.25;;;;;;;-142.75;100.00;77351.84;5002956;28;19908;-67
2023/01/05 00:41:21;;;;;;;;;;;;;;;-142.75;100.00;77336.09;5005404;28;20554;-67
2023/01/05 00:43:46;;;;;;;26.35;3.42;;;;;;;-142.75;100.00;77343.97;5004574;28;20271;-67
2023/01/05 00:46:12;;;;;;;26.95;3.45;;;;;;;-142.75;100.00;77349.88;5005306;28;20436;-67
2023/01/05 00:48:37;;;;;;;15.48;3.13;;;;;;;-142.75;100.00;77363.66;5006430;28;20455;-67
2023/01/05 00:51:03;;;;;;;20.80;3.22;;;;;;;-142.75;100.00;77373.50;5005674;28;20342;-67
2023/01/05 00:53:28;;;;;;;24.98;3.33;;;;;;;-142.75;100.00;77373.50;5004439;28;20236;-67
2023/01/05 00:55:54;;;;;;;;;;;;;;;-142.75;100.00;77349.88;5005012;28;20318;-67
2023/01/05 00:58:20;;;;;;;19.58;2.88;;;;;;;-142.75;100.00;77361.69;4986392;28;20397;-67
2023/01/05 01:00:45;;;;;;;18.42;3.05;;;;;;;-142.75;100.00;77361.69;5004189;28;20024;-68
2023/01/05 01:03:11;;;;;;;22.83;3.40;;;;;;;-142.75;100.00;77371.53;5006158;28;20419;-67
2023/01/05 01:05:36;;;;;;;;;;;;;;;-142.75;100.00;77379.41;5005671;28;20115;-67
2023/01/05 01:08:02;;;;;;;18.00;2.88;;;;;;;-142.75;100.00;77381.38;5004837;28;20211;-67
2023/01/05 01:10:27;;;;;;;26.25;3.85;;;;;;;-142.75;100.00;77373.50;5005200;28;20318;-67
2023/01/05 01:12:53;;;;;;;21.33;3.17;;;;;;;-142.75;100.00;77377.44;5005825;28;20236;-67
2023/01/05 01:15:19;;;;;;;22.25;3.13;;;;;;;-142.75;100.00;77385.31;5006483;28;20438;-67
2023/01/05 01:17:45;;;;;;;22.02;3.50;;;;;;;-142.75;100.00;77377.44;5004437;28;20304;-67
2023/01/05 01:20:11;;;;;;;34.42;3.67;;;;;;;-142.75;100.00;77373.50;4986847;28;20139;-67
2023/01/05 01:22:36;;;;;;;30.67;3.60;;;;;;;-142.75;100.00;77385.31;5004883;28;20186;-67
2023/01/05 01:25:02;;;;;;;26.35;3.38;;;;;;;-142.75;100.00;77373.50;5005899;28;20125;-67
2023/01/05 01:27:29;;;;;;;30.80;4.20;;;;;;;-142.75;100.00;77373.50;5006259;28;20338;-66
2023/01/05 01:29:55;;;;;;;26.02;4.18;;;;;;;-142.75;100.00;77389.25;5006346;28;20025;-66
2023/01/05 01:32:23;;;;;;;25.55;3.47;;;;;;;-142.75;100.00;77387.28;5001598;28;20318;-66
2023/01/05 01:34:48;;;;;;;17.88;3.10;;;;;;;-142.75;100.00;77383.34;5005091;28;20020;-67
2023/01/05 01:37:15;;;;;;;19.20;3.80;;;;;;;-142.75;100.00;77381.38;5005171;28;20488;-65
2023/01/05 01:39:40;;;;;;;31.73;3.88;;;;;;;-142.75;100.00;77399.09;5004950;28;20032;-66
2023/01/05 01:42:12;;;;;;;21.65;2.95;;;;;;;-142.75;100.00;77387.28;5004781;28;20322;-65
2023/01/05 01:45:21;;;;;;;20.60;3.05;;;;;;;-142.75;100.00;77391.22;5004990;28;20025;-65
2023/01/05 01:47:57;;;;;;;32.42;3.97;;;;;;;-142.75;100.00;77387.28;5004572;28;20210;-66
2023/01/05 01:50:29;;;;;;;22.05;3.15;;;;;;;-142.75;100.00;77397.13;5001080;28;20127;-65
2023/01/05 01:53:00;;;;;;;21.65;3.30;;;;;;;-142.75;100.00;77399.09;5003165;28;20110;-65
2023/01/05 01:55:27;;;;;;;19.88;3.58;;;;;;;-142.75;100.00;77401.06;5004441;28;20039;-65
2023/01/05 01:57:53;;;;;;;21.08;3.05;;;;;;;-142.75;100.00;77428.63;5005552;28;20020;-66
2023/01/05 02:00:20;;;;;;;26.02;3.42;;;;;;;-142.75;100.00;77416.81;5004655;28;20020;-67
2023/01/05 02:02:49;;;;;;;19.38;3.22;;;;;;;-142.75;100.00;77406.97;5005654;28;20614;-66
2023/01/05 02:05:17;;;;;;;26.25;3.28;;;;;;;-142.75;100.00;77416.81;5005050;28;20020;-66
2023/01/05 02:07:45;;;;;;;25.63;3.08;;;;;;;-142.75;100.00;77412.88;5004367;28;20036;-65
2023/01/05 02:10:11;;;;;;;30.92;3.75;;;;;;;-142.75;100.00;77406.97;5002896;28;20060;-65
2023/01/05 02:12:58;;;;;;;22.05;3.00;;;;;;;-142.75;100.00;77422.72;5005807;28;20127;-67
2023/01/05 02:15:45;;;;;;;20.75;2.58;;;;;;;-142.75;100.00;77428.63;5004242;28;20055;-66
2023/01/05 02:18:30;;;;;;;20.83;3.35;;;;;;;-142.75;100.00;77420.75;5003708;28;20047;-65
2023/01/05 02:21:16;;;;;;;27.17;3.30;;;;;;;-142.75;100.00;77418.78;5002080;28;20572;-66
2023/01/05 02:23:52;;;;;;;23.35;2.95;;;;;;;-142.75;100.00;77430.59;5002945;28;20044;-65
2023/01/05 02:26:33;;;;;;;17.10;2.78;;;;;;;-142.75;100.00;77422.72;4988453;28;20613;-65
2023/01/05 02:29:21;;;;;;;27.88;3.38;;;;;;;-142.75;100.00;77412.88;5005222;28;20060;-66
2023/01/05 02:31:56;;;;;;;18.25;2.90;;;;;;;-142.75;100.00;77410.91;5002915;28;20036;-66
2023/01/05 02:34:25;;;;;;;21.10;3.67;;;;;;;-142.75;100.00;77420.75;4984933;28;20037;-65
2023/01/05 02:37:01;;;;;;;29.27;2.75;;;;;;;-142.75;100.00;77414.84;5002747;28;20090;-65
2023/01/05 02:39:45;;;;;;;28.15;2.58;;;;;;;-142.75;100.00;77420.75;4984836;28;20025;-66
2023/01/05 02:42:15;;;;;;;21.70;2.75;;;;;;;-142.75;100.00;77440.44;4984391;28;20030;-66
2023/01/05 02:44:41;;;;;;;21.38;2.40;;;;;;;-142.75;100.00;77434.53;5002680;28;20035;-65
2023/01/05 02:47:26;;;;;;;28.15;3.38;;;;;;;-142.75;100.00;77442.41;5003219;28;20342;-66
2023/01/05 02:50:24;;;;;;;21.67;3.35;;;;;;;-142.75;100.00;77440.44;5004483;28;20033;-66
2023/01/05 02:53:17;;;;;;;21.48;2.88;;;;;;;-142.75;100.00;77430.59;4976985;28;20537;-66
2023/01/05 02:55:47;;;;;;;27.05;3.22;;;;;;;-142.75;100.00;77428.63;5003260;28;20553;-64
2023/01/05 02:58:31;;;;;;;23.80;2.95;;;;;;;-142.75;100.00;77428.63;5001950;28;20592;-64
2023/01/05 03:01:05;;;;;;;23.80;2.65;;;;;;;-142.75;100.00;77428.63;5004228;28;20540;-64
2023/01/05 03:03:42;;;;;;;23.38;3.00;;;;;;;-142.75;100.00;77420.75;4995764;28;20024;-64
2023/01/05 03:06:14;;;;;;;40.38;3.78;;;;;;;-142.75;100.00;77418.78;5004324;28;20079;-64
2023/01/05 03:08:54;;;;;;;17.80;2.85;;;;;;;-142.75;100.00;77410.91;5003542;28;20117;-64
2023/01/05 03:14:21;;;;;;;21.85;2.80;;;;;;;-142.75;100.00;77405.00;5003232;28;20318;-64
2023/01/05 03:16:49;;;;;;;22.33;2.85;;;;;;;-142.75;100.00;77422.72;5001529;28;20028;-64
2023/01/05 03:19:38;;;;;;;25.50;2.88;;;;;;;-142.75;100.00;77422.72;5003162;28;20127;-64
2023/01/05 03:36:56;;;;;;;24.73;3.35;;;;;;;-142.75;100.00;77422.72;5003041;28;20040;-64
2023/01/05 03:39:25;;;;;;;17.05;2.80;;;;;;;-142.75;100.00;77420.75;5003235;28;20110;-64
2023/01/05 03:41:52;;;;;;;24.17;2.75;;;;;;;-142.75;100.00;77422.72;5001501;28;20107;-64
2023/01/05 03:44:18;;;;;;;20.95;2.83;;;;;;;-142.75;100.00;77422.72;5001682;28;20529;-64
2023/01/05 03:46:43;;;;;;;;;;;;;;;-142.75;100.00;77420.75;5002161;28;20629;-64
2023/01/05 03:49:10;;;;;;;22.17;3.50;;;;;;;-142.75;100.00;77424.69;4983279;28;20014;-64
2023/01/05 03:51:35;;;;;;;;;;;;;;;-142.75;100.00;77420.75;5002418;28;20127;-65
2023/01/05 03:54:00;;;;;;;18.83;3.08;;;;;;;-142.75;100.00;77420.75;5001905;28;20245;-64
2023/01/05 03:56:26;;;;;;;21.27;2.72;;;;;;;-142.75;100.00;77408.94;5001843;28;20334;-64
2023/01/05 03:58:51;;;;;;;23.65;2.83;;;;;;;-142.75;100.00;77414.84;5004036;28;20271;-64
2023/01/05 04:01:17;;;;;;;19.33;2.90;;;;;;;-142.75;100.00;77405.00;5001797;28;20381;-64
2023/01/05 04:03:42;;;;;;;17.23;3.35;;;;;;;-142.75;100.00;77408.94;5001863;28;20476;-64
2023/01/05 04:06:08;;;;;;;;;;;;;;;-142.75;100.00;77406.97;4984187;28;20326;-64
2023/01/05 04:08:33;;;;;;;30.90;3.03;;;;;;;-142.75;100.00;77406.97;5001565;28;19955;-64
2023/01/05 04:11:12;;;;;;;;;;;;;;;-142.75;100.00;77389.25;4983317;28;20299;-64
2023/01/05 04:13:38;;;;;;;18.00;3.30;;;;;;;-142.75;100.00;77401.06;4984979;28;19916;-64
2023/01/05 04:16:04;;;;;;;18.73;2.88;;;;;;;-142.75;100.00;77393.19;5005159;28;20319;-64
2023/01/05 04:18:29;;;;;;;27.63;2.60;;;;;;;-142.75;100.00;77405.00;5005180;28;20330;-64
2023/01/05 04:20:55;;;;;;;;;;;;;;;-142.75;100.00;77401.06;5005649;28;20354;-64
2023/01/05 04:23:20;;;;;;;23.55;2.97;;;;;;;-142.75;100.00;77395.16;5004824;28;20308;-64
2023/01/05 04:25:47;;;;;;;23.27;3.30;;;;;;;-142.75;100.00;77395.16;4987022;28;20410;-64
2023/01/05 04:28:12;;;;;;;23.60;3.53;;;;;;;-142.75;100.00;77410.91;5007046;28;20025;-64
2023/01/05 04:30:38;;;;;;;26.52;3.15;;;;;;;-142.75;100.00;77408.94;5006660;28;20311;-64
2023/01/05 04:33:03;;;;;;;;;;;;;;;-142.75;100.00;77420.75;5006932;28;20032;-64
2023/01/05 04:35:29;;;;;;;23.73;4.20;;;;;;;-142.75;100.00;77424.69;5004985;28;20337;-64
2023/01/05 04:37:54;;;;;;;26.23;3.13;;;;;;;-142.75;100.00;77420.75;5006765;28;20364;-64
2023/01/05 04:40:20;;;;;;;26.52;3.13;;;;;;;-142.75;100.00;77416.81;5005772;28;20408;-64
2023/01/05 04:42:46;;;;;;;16.58;3.60;;;;;;;-142.75;100.00;77416.81;5005216;28;20376;-64
2023/01/05 04:45:11;;;;;;;28.23;4.05;;;;;;;-142.75;100.00;77416.81;5005493;28;20043;-64
2023/01/05 04:47:37;;;;;;;23.15;3.20;;;;;;;-142.75;100.00;77426.66;5006776;28;20339;-64
2023/01/05 04:50:03;;;;;;;15.63;2.88;;;;;;;-142.75;100.00;77430.59;5005221;28;20346;-64
2023/01/05 04:52:28;;;;;;;29.35;3.03;;;;;;;-142.75;100.00;77430.59;5004425;28;20311;-65
2023/01/05 04:54:54;;;;;;;;;;;;;;;-142.75;100.00;77420.75;4986449;28;20366;-64
2023/01/05 04:57:19;;;;;;;26.55;4.05;;;;;;;-142.75;100.00;77424.69;5005600;28;19913;-64
2023/01/05 04:59:45;;;;;;;;;;;;;;;-142.75;100.00;77424.69;5007137;28;20333;-65
2023/01/05 05:02:12;;;;;;;22.55;3.40;;;;;;;-142.75;100.00;77438.47;5006024;28;20082;-64
2023/01/05 05:04:38;;;;;;;25.67;3.55;;;;;;;-142.75;100.00;77420.75;5004605;28;20020;-64
2023/01/05 05:07:03;;;;;;;33.67;3.78;;;;;;;-142.75;100.00;77430.59;5005283;28;20417;-64
2023/01/05 05:09:29;;;;;;;24.10;3.38;;;;;;;-142.75;100.00;77426.66;4986270;28;20480;-64
2023/01/05 05:11:54;;;;;;;26.00;4.05;;;;;;;-142.75;100.00;77440.44;5006663;28;20170;-64
2023/01/05 05:14:20;;;;;;;26.58;2.70;;;;;;;-142.75;100.00;77450.28;5006357;28;20343;-65
2023/01/05 05:16:45;;;;;;;29.02;3.45;;;;;;;-142.75;100.00;77430.59;5005192;28;20346;-64
2023/01/05 05:19:11;;;;;;;;;;;;;;;-142.75;100.00;77408.94;5006127;28;20381;-65
2023/01/05 05:21:36;;;;;;;25.92;3.88;;;;;;;-142.75;100.00;77440.44;5004142;28;20447;-64
2023/01/05 05:24:02;;;;;;;27.30;3.10;;;;;;;-142.75;100.00;77448.34;5005424;28;20384;-64
2023/01/05 05:26:27;;;;;;;25.20;3.47;;;;;;;-142.75;100.00;77448.34;5003293;28;20318;-64
2023/01/05 05:28:53;;;;;;;19.05;2.35;;;;;;;-142.75;100.00;77436.50;5004901;28;20024;-64
2023/01/05 05:33:54;;;;;;;28.43;4.43;;;;;;;-142.75;100.00;77438.47;5007855;28;20252;-69
2023/01/05 05:36:20;;;;;;;19.98;3.65;;;;;;;-142.75;100.00;77448.34;5019226;28;20768;-69
2023/01/05 05:38:45;;;;;;;28.42;3.70;;;;;;;-142.75;100.00;77456.22;5017693;28;20349;-68
2023/01/05 05:41:11;;;;;;;32.17;4.25;;;;;;;-142.75;100.00;77462.13;5015522;28;20171;-69
2023/01/05 05:43:37;;;;;;;23.95;3.55;;;;;;;-142.75;100.00;77464.09;5006160;28;20159;-69
2023/01/05 05:46:02;;;;;;;;;;;;;;;-142.75;100.00;77464.09;5021244;28;20101;-69
2023/01/05 05:48:27;;;;;;;29.85;3.88;;;;;;;-142.75;100.00;77464.09;5005029;28;20305;-68
2023/01/05 05:50:53;;;;;;;25.23;3.80;;;;;;;-142.75;100.00;77477.88;5023201;28;20399;-69
2023/01/05 05:53:18;;;;;;;28.42;3.20;;;;;;;-142.75;100.00;77479.84;5022996;28;20450;-69
2023/01/05 05:55:49;;;;;;;24.48;3.00;;;;;;;-142.75;100.00;77475.91;5023427;28;20423;-69
2023/01/05 05:58:15;;;;;;;24.88;3.42;;;;;;;-142.75;100.00;77477.88;5023209;28;20028;-68
2023/01/05 06:00:41;;;;;;;33.22;4.22;;;;;;;-142.75;100.00;77479.84;5023945;28;20595;-69
2023/01/05 06:03:06;;;;;;;20.90;3.97;;;;;;;-142.75;100.00;77477.88;5024114;28;20024;-69
2023/01/05 06:05:32;;;;;;;30.15;3.92;;;;;;;-142.75;100.00;77475.91;5004592;28;20412;-69
2023/01/05 06:07:57;;;;;;;30.83;4.57;;;;;;;-142.75;100.00;77475.91;5025205;28;20466;-68
2023/01/05 06:10:23;;;;;;;28.52;4.00;;;;;;;-142.75;100.00;77464.09;5005199;28;20027;-69
2023/01/05 06:12:48;;;;;;;18.58;3.30;;;;;;;-142.75;100.00;77471.97;5022525;28;20313;-69
2023/01/05 06:15:14;;;;;;;25.50;3.75;;;;;;;-142.75;100.00;77479.84;5023186;28;20310;-69
2023/01/05 06:17:39;;;;;;;;;;;;;;;-142.75;100.00;77473.94;5024519;28;20326;-68
2023/01/05 06:20:05;;;;;;;21.08;2.67;;;;;;;-142.75;100.00;77471.97;5023035;28;20194;-69
2023/01/05 06:22:31;;;;;;;20.83;2.78;;;;;;;-142.75;100.00;77475.91;5004479;28;20696;-69
2023/01/05 06:24:56;;;;;;;26.23;4.13;;;;;;;-142.75;100.00;77489.69;5022772;28;20031;-68
2023/01/05 06:27:22;;;;;;;24.65;2.97;;;;;;;-142.75;100.00;77493.63;5022722;28;20459;-69
2023/01/05 06:29:47;;;;;;;19.25;2.78;;;;;;;-142.75;100.00;77497.56;5022655;28;20488;-69
2023/01/05 06:32:13;;;;;;;16.42;3.47;;;;;;;-142.75;100.00;77503.47;5023646;28;20344;-69
2023/01/05 06:34:38;;;;;;;22.05;3.05;;;;;;;-142.75;100.00;77505.44;5004709;28;20314;-69
2023/01/05 06:37:05;;;;;;;19.75;3.22;;;;;;;-142.75;100.00;77513.31;5022391;28;20349;-69
2023/01/05 06:39:31;;;;;;;24.13;3.50;;;;;;;-142.75;100.00;77513.31;5022628;28;20024;-68
2023/01/05 06:41:56;;;;;;;26.20;3.13;;;;;;;-142.75;100.00;77511.34;5004234;28;20337;-68
2023/01/05 06:44:22;;;;;;;25.05;3.08;;;;;;;-142.75;100.00;77523.16;5003908;28;20345;-69
2023/01/05 06:46:47;;;;;;;21.55;3.50;;;;;;;-142.75;100.00;77519.22;5023050;28;20345;-69
2023/01/05 06:49:13;;;;;;;;;;;;;;;-142.75;100.00;77517.25;5022929;28;20337;-68
2023/01/05 06:51:39;;;;;;;25.20;2.95;;;;;;;-142.75;100.00;77521.19;5006822;28;20221;-68
2023/01/05 06:54:06;;;;;;;28.33;3.40;;;;;;;-142.75;100.00;77523.16;5022015;28;20051;-69
2023/01/05 06:56:32;;;;;;;;;;;;;;;-142.75;100.00;77507.41;5022452;28;20568;-69
2023/01/05 06:58:57;;;;;;;20.35;3.05;;;;;;;-142.75;100.00;77536.94;5022072;28;19952;-68
2023/01/05 07:01:23;;;;;;;;;;;;;;;-142.75;100.00;77527.09;5022409;28;20364;-69
2023/01/05 07:03:48;;;;;;;19.95;2.75;;;;;;;-142.75;100.00;77534.97;5003435;28;20217;-68
2023/01/05 07:06:15;;;;;;;25.92;3.38;;;;;;;-142.75;100.00;77546.78;5021684;28;20358;-68
2023/01/05 07:08:41;;;;;;;24.45;3.38;;;;;;;-142.75;100.00;77538.91;5021855;28;20024;-69
2023/01/05 07:11:07;;;;;;;27.08;3.55;;;;;;;-142.75;100.00;77554.66;5022049;28;20201;-68
2023/01/05 07:13:32;;;;;;;26.02;3.40;;;;;;;-142.75;100.00;77548.75;5021822;28;20020;-68
2023/01/05 07:15:58;;;;;;;22.67;2.70;;;;;;;-142.75;100.00;77550.72;5021695;28;20416;-68
2023/01/05 07:18:23;;;;;;;;;;;;;;;-142.75;100.00;77556.63;5022147;28;20375;-69
2023/01/05 07:20:49;;;;;;;26.50;2.92;;;;;;;-142.75;100.00;77552.69;5003144;28;20268;-69
2023/01/05 07:23:14;;;;;;;28.70;3.67;;;;;;;-142.75;100.00;77552.69;5003366;28;20330;-68
2023/01/05 07:25:40;;;;;;;19.80;3.30;;;;;;;-142.75;100.00;77566.47;5006882;28;20333;-68
2023/01/05 07:28:05;;;;;;;21.90;2.78;;;;;;;-142.75;100.00;77562.53;5021351;28;20491;-69
2023/01/05 07:30:31;;;;;;;23.50;3.80;;;;;;;-142.75;100.00;77558.59;5022392;28;20337;-68
2023/01/05 07:32:57;;;;;;;21.73;3.22;;;;;;;-142.75;100.00;77554.66;5003065;28;20341;-68
2023/01/05 07:35:23;;;;;;;18.33;2.83;;;;;;;-142.75;100.00;77566.47;5021726;28;20126;-67
2023/01/05 07:37:49;;;;;;;19.15;3.00;;;;;;;-142.75;100.00;77566.47;5024158;28;20379;-68
2023/01/05 07:40:14;;;;;;;20.23;3.33;;;;;;;-142.75;100.00;77566.47;5021878;28;20333;-68
2023/01/05 07:42:40;;;;;;;19.88;3.55;;;;;;;-142.75;100.00;77562.53;5021372;28;20332;-69
2023/01/05 07:45:06;;;;;;;17.38;2.45;;;;;;;-142.75;100.00;77574.34;5003268;28;20345;-68
2023/01/05 07:47:31;;;;;;;;;;;;;;;-142.75;100.00;77566.47;5023081;28;20105;-68
2023/01/05 07:49:57;;;;;;;29.30;3.75;;;;;;;-142.75;100.00;77582.22;5028604;28;20303;-68
2023/01/05 07:52:22;;;;;;;29.02;3.25;;;;;;;-142.75;100.00;77572.38;5027766;28;20517;-68
2023/01/05 07:54:48;;;;;;;21.73;3.47;;;;;;;-142.75;100.00;77582.22;5027888;28;20328;-68
2023/01/05 07:57:13;;;;;;;17.25;3.00;;;;;;;-142.75;100.00;77596.00;5009636;28;20306;-68
2023/01/05 07:59:39;;;;;;;17.85;2.63;;;;;;;-142.75;100.00;77601.91;5027910;28;20336;-68
2023/01/05 08:02:05;;;;;;;30.95;3.83;;;;;;;-142.75;100.00;77597.97;5029276;28;20357;-68
2023/01/05 08:04:30;;;;;;;;;;;;;;;-142.75;100.00;77607.81;5010057;28;20036;-68
2023/01/05 08:06:55;;;;;;;26.40;3.50;;;;;;;-142.75;100.00;77607.81;5027547;28;20279;-68
2023/01/05 08:12:05;;;;;;;22.38;2.88;;;;;;;-142.75;100.00;77584.19;5027711;28;20345;-68
2023/01/05 08:14:31;;;;;;;17.77;2.92;;;;;;;-142.75;100.00;77584.19;5030211;28;20849;-67
2023/01/05 08:16:56;;;;;;;20.40;3.20;;;;;;;-142.75;100.00;77592.06;5027566;28;20314;-65
2023/01/05 08:19:21;;;;;;;;;;;;;;;-142.75;100.00;77586.16;5028196;28;20310;-67
2023/01/05 08:21:47;;;;;;;24.52;3.50;;;;;;;-142.75;100.00;77605.84;5026806;28;20326;-65
2023/01/05 08:24:12;;;;;;;22.83;3.22;;;;;;;-142.75;100.00;77586.16;5024560;28;20552;-66
2023/01/05 08:26:38;;;;;;;23.90;3.35;;;;;;;-142.75;100.00;77596.00;5009377;28;20354;-66
2023/01/05 08:29:04;;;;;;;18.20;2.67;;;;;;;-142.75;100.00;77582.22;5027916;28;20317;-66
2023/01/05 08:31:29;;;;;;;;;;;;;;;-142.75;100.00;77582.22;5064022;28;20052;-66
2023/01/05 08:33:57;;;;;;;25.88;3.90;;;;;;;-142.75;100.00;77582.22;5069587;28;20023;-65
2023/01/05 08:36:22;;;;;;;19.63;2.60;;;;;;;-142.75;100.00;77586.16;5084817;28;20031;-65
2023/01/05 08:38:50;;;;;;;20.63;3.33;;;;;;;-142.75;100.00;77594.03;5083249;28;20020;-67
2023/01/05 08:41:20;;;;;;;24.70;3.58;;;;;;;-142.75;100.00;77594.03;5068775;28;20016;-68
2023/01/05 08:43:51;;;;;;;15.05;2.40;;;;;;;-142.75;100.00;77580.25;5086772;28;20463;-67
2023/01/05 08:46:17;;;;;;;21.92;4.65;;;;;;;-142.75;100.00;77594.03;5083826;28;20359;-66
2023/01/05 08:48:46;;;;;;;21.40;3.10;;;;;;;-142.75;100.00;77603.88;5078317;28;20024;-65
2023/01/05 08:51:11;;;;;;;22.92;2.50;;;;;;;-142.75;100.00;77601.91;5078530;28;20036;-66
2023/01/05 08:53:36;;;;;;;20.52;3.55;;;;;;;-142.75;100.00;77607.81;5079663;28;20044;-69
2023/01/05 08:56:02;;;;;;;19.45;4.03;;;;;;;-142.75;100.00;77613.72;5079178;28;20649;-64
2023/01/05 08:58:27;;;;;;;;;;;;;;;-142.75;100.00;77605.84;5084082;28;20023;-67
2023/01/05 09:00:52;;;;;;;25.23;2.60;;;;;;;-142.75;100.00;77601.91;5081656;28;19912;-67
2023/01/05 09:03:18;;;;;;;;;;;;;;;-142.75;100.00;77592.06;5082224;28;20081;-66
2023/01/05 09:05:43;;;;;;;23.42;3.58;;;;;;;-142.75;100.00;77594.03;5064826;28;20699;-66
2023/01/05 09:08:08;;;;;;;;;;;;;;;-142.75;100.00;77609.78;5064471;28;20024;-67
2023/01/05 09:10:34;;;;;;;17.75;2.70;;;;;;;-142.75;100.00;77594.03;5082862;28;19911;-70
2023/01/05 09:12:59;;;;;;;;;;;;;;;-142.75;100.00;77586.16;5065031;28;20032;-68
2023/01/05 09:15:24;;;;;;;22.70;3.70;;;;;;;-142.75;100.00;77605.84;5064849;28;19908;-69
2023/01/05 09:17:49;;;;;;;;;;;;;;;-142.75;100.00;77597.97;5083352;28;20024;-67
2023/01/05 09:20:15;;;;;;;24.85;3.47;;;;;;;-142.75;100.00;77601.91;5064855;28;19919;-68
2023/01/05 09:22:40;;;;;;;14.50;3.00;;;;;;;-142.75;100.00;77603.88;5083506;28;20051;-66
2023/01/05 09:25:05;;;;;;;;;;;;;;;-142.75;100.00;77588.13;5083537;28;20528;-68
2023/01/05 09:27:31;;;;;;;22.75;3.50;;;;;;;-142.75;100.00;77586.16;5081979;28;19977;-67
2023/01/05 09:29:56;;;;;;;28.17;3.92;;;;;;;-142.75;100.00;77590.09;5064687;28;20307;-64
2023/01/05 09:32:22;;;;;;;;;;;;;;;-142.75;100.00;77597.97;5064602;28;20031;-65
2023/01/05 09:34:48;;;;;;;18.08;3.65;;;;;;;-142.75;100.00;77601.91;5065184;28;19935;-66
2023/01/05 09:37:13;;;;;;;29.77;3.78;;;;;;;-142.75;100.00;77588.13;5081949;28;20024;-66
2023/01/05 09:39:39;;;;;;;18.58;2.90;;;;;;;-142.75;100.00;77592.06;5082577;28;20024;-64
2023/01/05 09:42:09;;;;;;;16.90;3.20;;;;;;;-142.75;100.00;77586.16;5082519;28;20061;-67
2023/01/05 09:44:39;;;;;;;16.60;3.17;;;;;;;-142.75;100.00;77570.41;5083110;28;20035;-66
2023/01/05 09:47:37;;;;;;;24.27;3.20;;;;;;;-142.75;100.00;77578.28;5081876;28;20039;-67
2023/01/05 09:50:29;;;;;;;24.42;3.33;;;;;;;-142.75;100.00;77568.44;5082576;28;20024;-66
2023/01/05 09:52:58;;;;;;;32.60;4.25;;;;;;;-142.75;100.00;77568.44;5083065;28;20020;-68
2023/01/05 09:55:27;;;;;;;22.27;3.70;;;;;;;-142.75;100.00;77558.59;5064228;28;20472;-65
2023/01/05 09:57:57;;;;;;;25.90;3.78;;;;;;;-142.75;100.00;77562.53;5063829;28;20054;-65
2023/01/05 10:00:25;;;;;;;33.33;3.85;;;;;;;-142.75;100.00;77554.66;5081713;28;20059;-66
2023/01/05 10:03:12;;;;;;;21.17;2.65;;;;;;;-142.75;100.00;77554.66;5064408;28;20120;-66
2023/01/05 10:05:41;;;;;;;22.02;3.42;;;;;;;-142.75;100.00;77562.53;5082337;28;20023;-65
2023/01/05 10:08:38;;;;;;;19.20;2.60;;;;;;;-142.75;100.00;77554.66;5081190;28;20024;-66
2023/01/05 10:14:13;;;;;;;28.83;3.70;;;;;;;-142.75;100.00;77531.03;5082472;28;20468;-64
2023/01/05 10:16:43;;;;;;;27.60;3.53;;;;;;;-142.75;100.00;77542.84;5081075;28;20103;-65
2023/01/05 10:19:13;;;;;;;27.60;4.20;;;;;;;-142.75;100.00;77542.84;5082042;28;20039;-65
2023/01/05 10:22:14;;;;;;;27.42;4.05;;;;;;;-142.75;100.00;77529.06;5082384;28;20043;-66
2023/01/05 10:24:51;;;;;;;22.67;2.95;;;;;;;-142.75;100.00;77534.97;5082044;28;20693;-66
2023/01/05 10:27:31;;;;;;;28.65;3.28;;;;;;;-142.75;100.00;77536.94;5080911;28;20028;-67
2023/01/05 10:30:13;;;;;;;27.40;4.40;;;;;;;-142.75;100.00;77536.94;5063747;28;20138;-63
2023/01/05 10:33:00;;;;;;;31.23;3.60;;;;;;;-142.75;100.00;77533.00;5063619;28;20048;-66
2023/01/05 10:35:40;;;;;;;18.23;2.92;;;;;;;-142.75;100.00;77546.78;5082092;28;20159;-66
2023/01/05 10:38:34;;;;;;;29.92;3.80;;;;;;;-142.75;100.00;77554.66;5080878;28;20031;-67
2023/01/05 10:41:18;;;;;;;31.45;4.32;;;;;;;-142.75;100.00;77562.53;5063395;28;20038;-65
2023/01/05 10:44:05;;;;;;;26.17;3.45;;;;;;;-142.75;100.00;77550.72;5081481;28;20028;-66
2023/01/05 10:46:30;;;;;;;25.23;4.32;;;;;;;-142.75;100.00;77546.78;5081143;28;20043;-65
2023/01/05 10:48:56;;;;;;;22.75;4.15;;;;;;;-142.75;100.00;77527.09;5081151;28;20023;-65
2023/01/05 10:51:21;;;;;;;32.22;4.15;;;;;;;-142.75;100.00;77497.56;5081583;28;20790;-64
2023/01/05 10:53:47;;;;;;;27.05;3.80;;;;;;;-142.75;100.00;77444.38;5081680;28;20721;-67
2023/01/05 10:56:27;;;;;;;33.17;3.25;;;;;;;-142.75;100.00;77357.75;5063206;28;20024;-65
2023/01/05 10:59:14;;;;;;;23.23;3.90;;;;;;;-142.75;100.00;77279.00;5081124;28;20027;-66
2023/01/05 11:01:42;;;;;;;;;;;;;;;-142.75;100.00;77294.75;5081601;28;20069;-66
2023/01/05 11:04:16;;;;;;;27.60;4.05;;;;;;;-142.75;100.00;77296.72;5062993;28;20007;-66
2023/01/05 11:06:42;;;;;;;27.42;3.58;;;;;;;-142.75;100.00;77286.88;5062169;28;20110;-66
2023/01/05 11:09:22;;;;;;;28.23;3.58;;;;;;;-142.75;100.00;77243.56;5081032;28;20020;-66
2023/01/05 11:11:59;;;;;;;22.95;3.70;;;;;;;-142.75;100.00;77190.41;5081353;28;20070;-66
2023/01/05 11:14:27;;;;;;;25.60;4.20;;;;;;;-142.75;100.00;77178.59;5063031;28;20020;-66
2023/01/05 11:17:00;;;;;;;23.85;3.50;;;;;;;-142.75;100.00;77149.06;5080588;28;20012;-66
2023/01/05 11:19:30;;;;;;;24.98;3.58;;;;;;;-142.75;100.00;77137.25;5080963;28;20024;-66
2023/01/05 11:21:56;;;;;;;24.67;3.47;;;;;;;-142.75;100.00;77119.53;5062330;28;20032;-64
2023/01/05 11:24:24;;;;;;;;;;;;;;;-142.75;100.00;77109.69;5081172;28;20028;-65
2023/01/05 11:26:51;;;;;;;25.80;4.43;;;;;;;-142.75;100.00;77097.88;5080206;28;20494;-66
2023/01/05 11:29:17;;;;;;;24.52;4.03;;;;;;;-142.75;100.00;77068.34;5062771;28;20028;-65
2023/01/05 11:31:57;;;;;;;24.05;3.75;;;;;;;-142.75;100.00;77050.63;5080665;28;20111;-65
2023/01/05 11:34:22;;;;;;;20.77;3.58;;;;;;;-142.75;100.00;77027.00;5111255;22;20409;-69
2023/01/05 11:36:57;;;;;;;24.70;3.75;;;;;;;-142.75;100.00;77044.72;5082373;28;20032;-69
2023/01/05 11:39:38;;;;;;;23.00;3.60;;;;;;;-142.75;100.00;77088.03;5101045;28;20028;-68
2023/01/05 11:42:07;;;;;;;21.88;3.58;;;;;;;-142.75;100.00;77080.16;5100848;28;20031;-69
2023/01/05 11:44:34;;;;;;;23.00;3.33;;;;;;;-142.75;100.00;77050.63;5082197;28;20024;-68
2023/01/05 11:47:00;;;;;;;21.08;3.25;;;;;;;-142.75;100.00;77062.44;5079624;28;20540;-68
2023/01/05 11:49:25;;;;;;;25.92;4.15;;;;;;;-142.75;100.00;77060.47;5080523;28;20023;-69
2023/01/05 11:51:50;;;;;;;;;;;;;;;-142.75;100.00;77046.69;5081225;28;20472;-69
2023/01/05 11:54:45;;;;;;;14.40;2.95;;;;;;;-142.75;100.00;77068.34;5062428;28;19912;-68
2023/01/05 11:57:14;;;;;;;25.88;3.92;;;;;;;-142.75;100.00;77070.31;5038927;28;20036;-69